createdAt,value
2022-12-08T06:00:17.421Z,15.21
2022-12-08T06:03:02.801Z,15.40
2022-12-08T06:05:48.699Z,15.38
2022-12-08T06:08:33.904Z,15.38
2022-12-08T06:11:25.129Z,15.43
2022-12-08T06:14:12.308Z,15.47
2022-12-08T06:16:57.466Z,15.49
2022-12-08T06:19:42.627Z,15.52
2022-12-08T06:22:29.025Z,15.47
2022-12-08T06:25:14.141Z,15.56
2022-12-08T06:27:59.417Z,15.58
2022-12-08T06:30:44.594Z,15.58
2022-12-08T06:33:29.994Z,15.58
2022-12-08T06:36:17.526Z,15.61
2022-12-08T06:39:03.384Z,15.64
2022-12-08T06:42:07.340Z,15.64
2022-12-08T06:44:52.918Z,15.42
2022-12-08T06:47:37.901Z,15.67
2022-12-08T06:50:23.394Z,15.69
2022-12-08T06:53:08.705Z,15.67
2022-12-08T06:56:01.325Z,15.68
2022-12-08T06:58:52.079Z,15.73
2022-12-08T07:01:38.251Z,15.76
2022-12-08T07:04:23.702Z,15.76
2022-12-08T07:07:09.297Z,15.74
2022-12-08T07:09:54.457Z,15.72
2022-12-08T07:12:39.933Z,15.75
2022-12-08T07:15:25.373Z,15.65
2022-12-08T07:18:10.992Z,15.77
2022-12-08T07:20:56.453Z,15.80
2022-12-08T07:23:45.464Z,15.85
2022-12-08T07:26:31.100Z,15.87
2022-12-08T07:29:19.303Z,15.90
2022-12-08T07:32:08.305Z,15.91
2022-12-08T07:34:54.072Z,15.97
2022-12-08T07:37:39.320Z,16.02
2022-12-08T07:40:24.833Z,16.00
2022-12-08T07:43:10.082Z,16.01
2022-12-08T07:45:55.545Z,16.00
2022-12-08T07:48:42.288Z,16.02
2022-12-08T07:51:27.453Z,16.02
2022-12-08T07:54:13.458Z,16.06
2022-12-08T07:56:58.973Z,16.07
2022-12-08T07:59:44.066Z,16.07
2022-12-08T08:02:29.713Z,16.09
2022-12-08T08:05:15.224Z,16.13
2022-12-08T08:08:00.773Z,16.14
2022-12-08T08:10:47.328Z,16.27
2022-12-08T08:13:32.326Z,16.42
2022-12-08T08:16:18.839Z,16.58
2022-12-08T08:19:36.893Z,16.78
2022-12-08T08:22:22.116Z,16.70
2022-12-08T08:25:07.553Z,16.88
2022-12-08T08:29:32.991Z,16.97
2022-12-08T08:31:59.872Z,17.00
2022-12-08T08:34:26.617Z,17.05
2022-12-08T08:49:04.779Z,22.56
2022-12-08T08:54:15.897Z,21.01
2022-12-08T08:56:42.479Z,20.58
2022-12-08T08:59:09.890Z,20.29
2022-12-08T09:01:36.888Z,20.06
2022-12-08T09:08:08.392Z,19.70
2022-12-08T09:10:35.197Z,19.10
2022-12-08T09:13:02.119Z,18.58
2022-12-08T09:15:29.306Z,18.35
2022-12-08T09:17:55.967Z,18.13
2022-12-08T09:20:22.675Z,17.85
2022-12-08T09:22:49.385Z,17.39
2022-12-08T09:25:16.128Z,17.39
2022-12-08T09:27:42.882Z,17.23
2022-12-08T09:30:09.894Z,16.85
2022-12-08T09:32:36.439Z,16.94
2022-12-08T09:35:03.411Z,16.82
2022-12-08T09:37:30.195Z,16.67
2022-12-08T09:39:57.121Z,16.64
2022-12-08T09:42:49.655Z,16.56
2022-12-08T09:45:18.287Z,16.40
2022-12-08T09:48:04.358Z,16.42
2022-12-08T09:50:56.956Z,16.37
2022-12-08T09:53:30.626Z,16.32
2022-12-08T09:56:05.658Z,16.27
2022-12-08T09:58:53.397Z,16.23
2022-12-08T10:01:22.334Z,16.20
2022-12-08T10:03:49.670Z,16.17
2022-12-08T10:06:16.373Z,16.15
2022-12-08T10:09:12.501Z,16.12
2022-12-08T10:11:59.053Z,16.09
2022-12-08T10:14:45.190Z,16.08
2022-12-08T10:17:27.180Z,16.06
2022-12-08T10:20:15.755Z,16.01
2022-12-08T10:22:44.873Z,15.98
2022-12-08T10:25:28.641Z,15.87
2022-12-08T10:27:55.331Z,16.00
2022-12-08T10:30:22.408Z,16.01
2022-12-08T10:32:52.212Z,15.91
2022-12-08T10:35:21.577Z,15.99
2022-12-08T10:38:02.951Z,15.98
2022-12-08T10:40:42.115Z,15.97
2022-12-08T10:43:17.570Z,15.72
2022-12-08T10:45:45.151Z,15.83
2022-12-08T10:48:31.342Z,15.92
2022-12-08T10:50:59.504Z,15.91
2022-12-08T10:53:28.134Z,15.88
2022-12-08T10:56:03.896Z,15.86
2022-12-08T10:58:40.926Z,15.84
2022-12-08T11:01:15.537Z,15.82
2022-12-08T11:03:58.937Z,15.68
2022-12-08T11:08:54.380Z,15.98
2022-12-08T11:11:28.990Z,16.31
2022-12-08T11:13:56.554Z,16.61
2022-12-08T11:16:23.725Z,16.75
2022-12-08T11:18:57.154Z,17.14
2022-12-08T11:21:36.140Z,16.69
2022-12-08T11:24:14.873Z,17.53
2022-12-08T11:26:50.102Z,17.64
2022-12-08T11:29:17.582Z,17.45
2022-12-08T11:31:52.472Z,17.82
2022-12-08T11:34:28.814Z,17.85
2022-12-08T11:36:56.384Z,17.93
2022-12-08T11:39:27.309Z,18.06
2022-12-08T11:41:56.397Z,18.11
2022-12-08T11:44:32.691Z,17.89
2022-12-08T11:47:05.029Z,18.16
2022-12-08T11:49:36.772Z,17.70
2022-12-08T11:52:13.146Z,17.75
2022-12-08T11:54:49.852Z,18.08
2022-12-08T11:57:20.703Z,18.21
2022-12-08T11:59:56.165Z,18.08
2022-12-08T12:02:30.046Z,18.19
2022-12-08T12:05:09.084Z,18.20
2022-12-08T12:07:47.659Z,18.19
2022-12-08T12:10:26.330Z,18.19
2022-12-08T12:13:04.849Z,18.19
2022-12-08T12:16:13.845Z,18.19
2022-12-08T12:19:06.840Z,18.17
2022-12-08T12:21:39.398Z,18.16
2022-12-08T12:24:10.323Z,17.96
2022-12-08T12:26:54.846Z,18.05
2022-12-08T12:29:24.433Z,18.15
2022-12-08T12:31:59.300Z,18.13
2022-12-08T12:34:30.765Z,18.12
2022-12-08T12:37:05.707Z,18.10
2022-12-08T12:39:45.890Z,18.08
2022-12-08T12:42:35.001Z,17.66
2022-12-08T12:45:16.962Z,18.03
2022-12-08T12:47:57.338Z,18.02
2022-12-08T12:50:41.702Z,17.98
2022-12-08T12:53:17.849Z,17.96
2022-12-08T13:04:37.722Z,14.16
2022-12-08T13:07:05.124Z,12.60
2022-12-08T13:09:38.130Z,11.30
2022-12-08T13:12:11.491Z,9.56
2022-12-08T13:14:44.474Z,9.54
2022-12-08T13:17:14.160Z,8.80
2022-12-08T13:19:44.368Z,8.13
2022-12-08T13:22:24.272Z,7.54
2022-12-08T13:24:51.051Z,6.74
2022-12-08T13:27:22.231Z,6.70
2022-12-08T13:30:02.591Z,6.38
2022-12-08T13:32:39.008Z,6.08
2022-12-08T13:35:12.007Z,4.80
2022-12-08T13:37:54.931Z,5.65
2022-12-08T13:40:25.346Z,5.50
2022-12-08T13:43:01.809Z,5.40
2022-12-08T13:46:20.121Z,4.82
2022-12-08T13:48:35.587Z,5.24
2022-12-08T13:53:28.418Z,5.19
2022-12-08T13:57:17.142Z,5.02
2022-12-08T14:02:34.370Z,4.81
2022-12-08T14:05:18.958Z,4.84
2022-12-08T14:07:43.021Z,4.28
2022-12-08T14:10:17.258Z,4.74
2022-12-08T14:12:48.379Z,4.10
2022-12-08T14:15:17.262Z,3.88
2022-12-08T14:17:55.923Z,4.61
2022-12-08T14:20:31.448Z,1.37
2022-12-08T14:23:02.240Z,4.27
2022-12-08T14:25:29.905Z,4.18
2022-12-08T14:28:01.346Z,4.28
2022-12-08T14:30:32.763Z,3.36
2022-12-08T14:33:01.145Z,3.90
2022-12-08T14:35:31.214Z,2.40
2022-12-08T14:38:03.139Z,4.00
2022-12-08T14:43:18.167Z,4.08
2022-12-08T14:45:44.942Z,4.04
2022-12-08T14:48:26.941Z,2.09
2022-12-08T14:51:12.275Z,3.95
2022-12-08T14:53:54.551Z,3.91
2022-12-08T14:56:36.323Z,3.85
2022-12-08T14:59:17.339Z,3.79
2022-12-08T15:01:45.081Z,3.74
2022-12-08T15:04:12.570Z,3.69
2022-12-08T15:06:55.744Z,3.63
2022-12-08T15:09:33.081Z,3.56
2022-12-08T15:12:13.112Z,3.54
2022-12-08T15:14:57.261Z,2.78
2022-12-08T15:20:24.102Z,3.33
2022-12-08T15:22:51.564Z,3.18
2022-12-08T15:25:18.572Z,2.25
2022-12-08T15:27:50.464Z,1.81
2022-12-08T15:30:17.857Z,3.15
2022-12-08T15:32:44.727Z,0.46
2022-12-08T15:35:17.796Z,3.02
2022-12-08T15:37:47.250Z,3.03
2022-12-08T15:42:50.027Z,1.84
2022-12-08T15:45:17.412Z,2.44
2022-12-08T15:47:45.794Z,3.12
2022-12-08T15:50:18.967Z,3.10
2022-12-08T15:52:46.175Z,1.80
2022-12-08T15:55:16.427Z,2.98
2022-12-08T16:00:50.695Z,2.93
2022-12-08T16:03:27.878Z,2.15
2022-12-08T16:05:50.060Z,2.48
2022-12-08T16:12:03.782Z,2.70
2022-12-08T16:14:19.902Z,2.09
2022-12-08T16:16:40.198Z,2.01
2022-12-08T16:19:09.340Z,2.34
2022-12-08T16:24:19.599Z,2.46
2022-12-08T16:27:58.687Z,2.28
2022-12-08T16:29:20.913Z,2.43
2022-12-08T16:31:47.889Z,2.02
2022-12-08T16:34:14.621Z,2.43
2022-12-08T16:36:41.966Z,2.29
2022-12-08T16:39:12.991Z,2.38
2022-12-08T16:41:50.075Z,2.24
2022-12-08T16:44:16.850Z,1.88
2022-12-08T16:46:44.038Z,2.02
2022-12-08T16:49:10.966Z,0.50
2022-12-08T16:51:39.095Z,2.04
2022-12-08T16:54:09.448Z,-0.05
2022-12-08T16:56:36.203Z,1.98
2022-12-08T16:59:03.066Z,0.74
2022-12-08T17:01:29.893Z,0.37
2022-12-08T17:04:29.208Z,2.20
2022-12-08T17:06:37.808Z,0.77
2022-12-08T17:09:08.506Z,1.77
2022-12-08T17:14:15.492Z,1.68
2022-12-08T17:16:44.430Z,1.93
2022-12-08T17:19:13.221Z,2.07
2022-12-08T17:21:41.669Z,1.77
2022-12-08T17:24:08.838Z,0.49
2022-12-08T17:26:37.005Z,1.63
2022-12-08T17:29:04.804Z,0.84
2022-12-08T17:31:36.043Z,2.01
2022-12-08T17:36:44.130Z,1.23
2022-12-08T17:39:18.360Z,1.95
2022-12-08T17:41:46.257Z,1.92
2022-12-08T17:44:17.972Z,1.76
2022-12-08T17:46:52.082Z,1.71
2022-12-08T17:49:24.667Z,1.43
2022-12-08T17:51:55.096Z,1.47
2022-12-08T17:54:22.028Z,1.73
2022-12-08T17:56:48.898Z,1.81
2022-12-08T17:59:15.969Z,0.75
2022-12-08T18:01:43.133Z,1.78
2022-12-08T18:04:12.718Z,1.75
2022-12-08T18:06:40.000Z,1.73
2022-12-08T18:09:10.747Z,1.53
2022-12-08T18:11:38.072Z,1.38
2022-12-08T18:14:11.610Z,1.68
2022-12-08T18:16:40.954Z,1.34
2022-12-08T18:19:10.429Z,0.31
2022-12-08T18:21:37.721Z,1.21
2022-12-08T18:24:09.568Z,1.63
2022-12-08T18:26:36.416Z,1.61
2022-12-08T18:29:03.782Z,1.58
2022-12-08T18:31:33.199Z,0.84
2022-12-08T18:34:02.076Z,1.53
2022-12-08T18:36:28.709Z,0.88
2022-12-08T18:38:55.634Z,0.61
2022-12-08T18:43:55.353Z,1.45
2022-12-08T18:48:58.322Z,1.45
2022-12-08T18:51:25.295Z,-0.19
2022-12-08T18:53:58.726Z,0.24
2022-12-08T18:56:31.995Z,1.24
2022-12-08T18:59:03.909Z,1.34
2022-12-08T19:01:36.328Z,1.26
2022-12-08T19:06:48.384Z,1.29
2022-12-08T19:09:16.724Z,1.26
2022-12-08T19:11:44.090Z,1.26
2022-12-08T19:14:14.550Z,0.05
2022-12-08T19:16:41.356Z,0.59
2022-12-08T19:19:09.209Z,0.59
2022-12-08T19:21:40.203Z,0.09
2022-12-08T19:24:11.449Z,0.92
2022-12-08T19:26:39.367Z,0.16
2022-12-08T19:29:06.511Z,0.21
2022-12-08T19:31:33.317Z,1.17
2022-12-08T19:34:00.317Z,0.66
2022-12-08T19:36:27.943Z,-1.31
2022-12-08T19:39:07.500Z,0.64
2022-12-08T19:41:49.320Z,1.04
2022-12-08T19:44:32.424Z,0.05
2022-12-08T19:47:02.500Z,0.55
2022-12-08T19:49:29.545Z,0.19
2022-12-08T19:51:56.625Z,0.52
2022-12-08T19:54:23.572Z,0.96
2022-12-08T19:59:19.501Z,0.53
2022-12-08T20:01:48.221Z,0.79
2022-12-08T20:04:15.999Z,0.89
2022-12-08T20:06:45.852Z,0.87
2022-12-08T20:09:15.737Z,-1.09
2022-12-08T20:11:42.566Z,0.84
2022-12-08T20:14:09.558Z,0.23
2022-12-08T20:16:42.430Z,0.81
2022-12-08T20:19:09.723Z,0.77
2022-12-08T20:21:40.408Z,-2.23
2022-12-08T20:24:07.378Z,-0.58
2022-12-08T20:26:34.319Z,0.60
2022-12-08T20:29:04.443Z,0.71
2022-12-08T20:31:34.766Z,0.69
2022-12-08T20:34:04.694Z,-0.71
2022-12-08T20:36:31.756Z,0.67
2022-12-08T20:38:58.554Z,0.31
2022-12-08T20:41:26.811Z,0.14
2022-12-08T20:43:54.277Z,0.60
2022-12-08T20:46:21.732Z,0.57
2022-12-08T20:48:48.892Z,0.03
2022-12-08T20:51:20.042Z,0.55
2022-12-08T20:53:49.006Z,-2.40
2022-12-08T20:56:21.020Z,0.56
2022-12-08T20:58:50.680Z,-0.57
2022-12-08T21:01:20.775Z,-1.48
2022-12-08T21:03:49.208Z,0.64
2022-12-08T21:06:24.541Z,0.55
2022-12-08T21:08:54.579Z,0.64
2022-12-08T21:11:21.434Z,0.43
2022-12-08T21:13:48.251Z,0.37
2022-12-08T21:16:16.050Z,-0.75
2022-12-08T21:18:42.943Z,0.38
2022-12-08T21:21:17.979Z,0.72
2022-12-08T21:23:45.054Z,0.07
2022-12-08T22:13:42.065Z,0.86
2022-12-08T22:16:11.452Z,0.80
2022-12-08T22:18:38.689Z,0.10
2022-12-08T22:21:10.964Z,0.61
2022-12-08T22:23:38.041Z,0.68
2022-12-08T22:26:05.305Z,0.66
2022-12-08T22:28:42.969Z,0.55
2022-12-08T22:31:19.712Z,0.62
2022-12-08T22:33:48.891Z,0.39
2022-12-08T22:36:22.513Z,0.59
2022-12-08T22:38:50.447Z,0.57
2022-12-08T22:41:18.414Z,0.52
2022-12-08T22:43:45.943Z,0.57
2022-12-08T22:46:24.604Z,0.56
2022-12-08T22:48:52.326Z,0.55
2022-12-08T22:51:19.773Z,0.50
2022-12-08T22:53:47.424Z,0.42
2022-12-08T22:56:16.204Z,0.36
2022-12-08T22:58:44.502Z,0.43
2022-12-08T23:01:29.858Z,0.41
2022-12-08T23:03:58.435Z,-0.04
2022-12-08T23:06:26.493Z,0.23
2022-12-08T23:08:54.726Z,0.07
2022-12-08T23:11:23.992Z,0.26
2022-12-08T23:13:50.864Z,0.20
2022-12-08T23:16:18.054Z,0.21
2022-12-08T23:18:46.292Z,0.14
2022-12-08T23:21:19.848Z,0.12
2022-12-08T23:23:47.251Z,0.10
2022-12-08T23:26:23.950Z,0.08
2022-12-08T23:28:51.184Z,-0.25
2022-12-08T23:31:18.851Z,0.03
2022-12-08T23:33:46.148Z,0.00
2022-12-08T23:36:18.360Z,-0.19
2022-12-08T23:38:45.545Z,-0.38
2022-12-08T23:41:15.034Z,-0.05
2022-12-08T23:43:46.864Z,-0.46
2022-12-08T23:46:15.807Z,-0.33
2022-12-08T23:48:42.810Z,-0.12
2022-12-08T23:51:09.750Z,-0.25
2022-12-08T23:53:36.820Z,-0.18
2022-12-08T23:56:07.252Z,-0.20
2022-12-08T23:58:34.778Z,-0.23
